Time,TemperatureF,DewpointF,PressureIn,WindDirection,WindDirectionDegrees,WindSpeedMPH,WindSpeedGustMPH,Humidity,HourlyPrecipIn,Conditions,Clouds,dailyrainin,SoftwareType,DateUTC
2013-05-04 00:02:00,53.0,35.0,30.09,East,88,0.0,-999.0,51,0.00,,,0.00,,2013-05-04 05:02:00,
2013-05-04 00:11:00,54.0,35.0,30.09,East,88,1.0,-999.0,48,0.00,,,0.00,,2013-05-04 05:11:00,
2013-05-04 00:22:00,54.0,35.0,30.09,East,88,1.0,-999.0,48,0.00,,,0.00,,2013-05-04 05:22:00,
2013-05-04 00:32:00,52.0,39.0,30.09,East,88,0.0,-999.0,60,0.00,,,0.00,,2013-05-04 05:32:00,
2013-05-04 00:42:00,52.0,39.0,30.09,East,88,0.0,-999.0,60,0.00,,,0.00,,2013-05-04 05:42:00,
2013-05-04 00:52:00,51.0,38.0,30.09,East,88,0.0,-999.0,60,0.00,,,0.00,,2013-05-04 05:52:00,
2013-05-04 01:01:00,50.0,38.0,30.09,East,88,0.0,-999.0,62,0.00,,,0.00,,2013-05-04 06:01:00,
2013-05-04 01:11:00,50.0,38.0,30.09,East,88,0.0,-999.0,62,0.00,,,0.00,,2013-05-04 06:11:00,
2013-05-04 01:21:00,49.0,37.0,30.09,East,88,1.0,-999.0,64,0.00,,,0.00,,2013-05-04 06:21:00,
2013-05-04 01:32:00,47.0,38.0,30.09,East,88,0.0,-999.0,71,0.00,,,0.00,,2013-05-04 06:32:00,
2013-05-04 01:42:00,47.0,38.0,30.09,East,88,0.0,-999.0,71,0.00,,,0.00,,2013-05-04 06:42:00,
2013-05-04 01:52:00,46.0,39.0,30.08,East,88,0.0,-999.0,75,0.00,,,0.00,,2013-05-04 06:52:00,
2013-05-04 02:01:00,46.0,37.0,30.07,East,88,0.0,-999.0,72,0.00,,,0.00,,2013-05-04 07:01:00,
2013-05-04 02:11:00,46.0,37.0,30.07,East,88,0.0,-999.0,72,0.00,,,0.00,,2013-05-04 07:11:00,
2013-05-04 02:21:00,47.0,37.0,30.06,East,88,1.0,-999.0,69,0.00,,,0.00,,2013-05-04 07:21:00,
2013-05-04 02:32:00,47.0,38.0,30.06,SW,220,3.0,-999.0,70,0.00,,,0.00,,2013-05-04 07:32:00,
2013-05-04 02:42:00,47.0,38.0,30.06,SW,220,3.0,-999.0,70,0.00,,,0.00,,2013-05-04 07:42:00,
2013-05-04 02:52:00,48.0,38.0,30.05,SW,232,4.0,-999.0,68,0.00,,,0.00,,2013-05-04 07:52:00,
2013-05-04 03:01:00,49.0,38.0,30.05,SW,236,3.0,-999.0,65,0.00,,,0.00,,2013-05-04 08:01:00,
2013-05-04 03:11:00,49.0,38.0,30.05,SW,236,3.0,-999.0,65,0.00,,,0.00,,2013-05-04 08:11:00,
2013-05-04 03:21:00,49.0,37.0,30.04,WSW,239,4.0,-999.0,64,0.00,,,0.00,,2013-05-04 08:21:00,
2013-05-04 03:31:00,49.0,37.0,30.03,WSW,240,4.0,-999.0,64,0.00,,,0.00,,2013-05-04 08:31:00,
2013-05-04 03:41:00,49.0,37.0,30.03,WSW,240,4.0,-999.0,64,0.00,,,0.00,,2013-05-04 08:41:00,
2013-05-04 03:52:00,49.0,37.0,30.03,WSW,242,3.0,-999.0,64,0.00,,,0.00,,2013-05-04 08:52:00,
2013-05-04 04:02:00,49.0,37.0,30.03,WSW,238,3.0,-999.0,62,0.00,,,0.00,,2013-05-04 09:02:00,
2013-05-04 04:11:00,49.0,37.0,30.03,WSW,238,3.0,-999.0,62,0.00,,,0.00,,2013-05-04 09:11:00,
2013-05-04 04:21:00,49.0,37.0,30.02,WSW,240,4.0,-999.0,62,0.00,,,0.00,,2013-05-04 09:21:00,
2013-05-04 04:32:00,49.0,37.0,30.01,WSW,242,3.0,-999.0,63,0.00,,,0.00,,2013-05-04 09:32:00,
2013-05-04 04:42:00,49.0,37.0,30.01,WSW,242,3.0,-999.0,63,0.00,,,0.00,,2013-05-04 09:42:00,
2013-05-04 04:52:00,49.0,37.0,30.01,WSW,244,3.0,-999.0,64,0.00,,,0.00,,2013-05-04 09:52:00,
2013-05-04 05:02:00,49.0,37.0,30.02,WSW,240,3.0,-999.0,64,0.00,,,0.00,,2013-05-04 10:02:00,
2013-05-04 05:12:00,49.0,37.0,30.02,WSW,240,3.0,-999.0,64,0.00,,,0.00,,2013-05-04 10:12:00,
2013-05-04 05:22:00,49.0,37.0,30.02,WSW,240,4.0,-999.0,64,0.00,,,0.00,,2013-05-04 10:22:00,
2013-05-04 05:33:00,49.0,38.0,30.01,WSW,246,4.0,-999.0,66,0.00,,,0.00,,2013-05-04 10:33:00,
2013-05-04 05:42:00,49.0,38.0,30.01,WSW,246,4.0,-999.0,66,0.00,,,0.00,,2013-05-04 10:42:00,
2013-05-04 05:53:00,48.0,38.0,30.02,WSW,247,5.0,-999.0,68,0.00,,,0.00,,2013-05-04 10:53:00,
2013-05-04 06:02:00,47.0,37.0,30.02,WSW,246,3.0,-999.0,69,0.00,,,0.00,,2013-05-04 11:02:00,
2013-05-04 06:11:00,47.0,37.0,30.02,WSW,246,3.0,-999.0,69,0.00,,,0.00,,2013-05-04 11:11:00,
2013-05-04 06:21:00,48.0,38.0,30.02,SW,234,4.0,-999.0,69,0.00,,,0.00,,2013-05-04 11:21:00,
2013-05-04 06:32:00,47.0,37.0,30.02,WSW,240,3.0,-999.0,68,0.00,,,0.00,,2013-05-04 11:32:00,
2013-05-04 06:42:00,47.0,37.0,30.02,WSW,240,3.0,-999.0,68,0.00,,,0.00,,2013-05-04 11:42:00,
2013-05-04 07:01:00,47.0,37.0,30.02,SW,232,5.0,-999.0,68,0.00,,,0.00,,2013-05-04 12:01:00,
2013-05-04 07:13:00,47.0,37.0,30.03,SW,232,3.0,-999.0,68,0.00,,,0.00,,2013-05-04 12:13:00,
2013-05-04 07:36:00,48.0,37.0,30.03,SW,223,3.0,-999.0,66,0.00,,,0.00,,2013-05-04 12:36:00,
2013-05-04 07:42:00,48.0,37.0,30.03,SW,223,3.0,-999.0,66,0.00,,,0.00,,2013-05-04 12:42:00,
2013-05-04 07:52:00,48.0,38.0,30.03,SW,228,2.0,-999.0,67,0.00,,,0.00,,2013-05-04 12:52:00,
2013-05-04 08:01:00,50.0,39.0,30.04,SW,226,5.0,-999.0,66,0.00,,,0.00,,2013-05-04 13:01:00,
2013-05-04 08:41:00,53.0,40.0,30.05,WSW,240,4.0,-999.0,62,0.00,,,0.00,,2013-05-04 13:41:00,
2013-05-04 08:52:00,55.0,41.0,30.05,WSW,243,6.0,-999.0,58,0.00,,,0.00,,2013-05-04 13:52:00,
2013-05-04 09:02:00,56.0,40.0,30.05,SW,227,6.0,-999.0,55,0.00,,,0.00,,2013-05-04 14:02:00,
2013-05-04 09:11:00,56.0,40.0,30.05,SW,227,6.0,-999.0,55,0.00,,,0.00,,2013-05-04 14:11:00,
2013-05-04 09:21:00,59.0,40.0,30.05,SW,236,8.0,-999.0,49,0.00,,,0.00,,2013-05-04 14:21:00,
2013-05-04 09:32:00,60.0,39.0,30.05,SSW,212,7.0,-999.0,46,0.00,,,0.00,,2013-05-04 14:32:00,
2013-05-04 09:42:00,60.0,39.0,30.05,SSW,212,7.0,-999.0,46,0.00,,,0.00,,2013-05-04 14:42:00,
2013-05-04 09:52:00,61.0,40.0,30.05,SW,228,6.0,-999.0,46,0.00,,,0.00,,2013-05-04 14:52:00,
2013-05-04 10:02:00,63.0,38.0,30.05,SW,215,14.0,-999.0,39,0.00,,,0.00,,2013-05-04 15:02:00,
2013-05-04 10:11:00,63.0,38.0,30.05,SW,215,14.0,-999.0,39,0.00,,,0.00,,2013-05-04 15:11:00,
2013-05-04 10:22:00,65.0,38.0,30.06,SSW,210,10.0,-999.0,37,0.00,,,0.00,,2013-05-04 15:22:00,
2013-05-04 10:33:00,65.0,39.0,30.06,WSW,251,8.0,-999.0,38,0.00,,,0.00,,2013-05-04 15:33:00,
2013-05-04 10:43:00,65.0,39.0,30.06,WSW,251,8.0,-999.0,38,0.00,,,0.00,,2013-05-04 15:43:00,
2013-05-04 10:53:00,66.0,36.0,30.05,SSW,200,14.0,-999.0,33,0.00,,,0.00,,2013-05-04 15:53:00,
2013-05-04 11:03:00,67.0,37.0,30.05,SSW,198,13.0,-999.0,33,0.00,,,0.00,,2013-05-04 16:03:00,
2013-05-04 11:12:00,67.0,37.0,30.05,SSW,198,13.0,-999.0,33,0.00,,,0.00,,2013-05-04 16:12:00,
2013-05-04 11:22:00,68.0,36.0,30.04,SW,226,9.0,-999.0,31,0.00,,,0.00,,2013-05-04 16:22:00,
2013-05-04 11:33:00,69.0,38.0,30.04,WSW,240,7.0,-999.0,32,0.00,,,0.00,,2013-05-04 16:33:00,
2013-05-04 11:42:00,69.0,38.0,30.04,WSW,240,7.0,-999.0,32,0.00,,,0.00,,2013-05-04 16:42:00,
2013-05-04 11:52:00,69.0,37.0,30.03,SW,229,10.0,-999.0,31,0.00,,,0.00,,2013-05-04 16:52:00,
2013-05-04 12:02:00,70.0,37.0,30.03,SSW,205,6.0,-999.0,30,0.00,,,0.00,,2013-05-04 17:02:00,
2013-05-04 12:12:00,70.0,37.0,30.03,SSW,205,6.0,-999.0,30,0.00,,,0.00,,2013-05-04 17:12:00,
2013-05-04 12:22:00,71.0,39.0,30.02,WSW,250,13.0,-999.0,31,0.00,,,0.00,,2013-05-04 17:22:00,
2013-05-04 12:32:00,71.0,38.0,30.02,WSW,242,11.0,-999.0,30,0.00,,,0.00,,2013-05-04 17:32:00,
2013-05-04 12:42:00,71.0,38.0,30.02,WSW,242,11.0,-999.0,30,0.00,,,0.00,,2013-05-04 17:42:00,
2013-05-04 12:52:00,71.0,36.0,30.01,WSW,253,13.0,-999.0,28,0.00,,,0.00,,2013-05-04 17:52:00,
2013-05-04 13:01:00,73.0,39.0,30.00,SSW,207,7.0,-999.0,29,0.00,,,0.00,,2013-05-04 18:01:00,
2013-05-04 13:12:00,73.0,39.0,30.00,SSW,207,7.0,-999.0,29,0.00,,,0.00,,2013-05-04 18:12:00,
2013-05-04 13:21:00,74.0,40.0,29.99,SW,229,7.0,-999.0,29,0.00,,,0.00,,2013-05-04 18:21:00,
2013-05-04 13:32:00,74.0,40.0,29.99,SW,229,7.0,-999.0,29,0.00,,,0.00,,2013-05-04 18:32:00,
2013-05-04 13:42:00,74.0,40.0,29.99,SW,229,7.0,-999.0,29,0.00,,,0.00,,2013-05-04 18:42:00,
2013-05-04 13:52:00,75.0,39.0,29.97,West,265,3.0,-999.0,27,0.00,,,0.00,,2013-05-04 18:52:00,
2013-05-04 14:01:00,75.0,39.0,29.96,South,185,9.0,-999.0,27,0.00,,,0.00,,2013-05-04 19:01:00,
2013-05-04 14:11:00,75.0,39.0,29.96,South,185,9.0,-999.0,27,0.00,,,0.00,,2013-05-04 19:11:00,
2013-05-04 14:21:00,76.0,38.0,29.96,South,186,7.0,-999.0,25,0.00,,,0.00,,2013-05-04 19:21:00,
2013-05-04 14:32:00,76.0,40.0,29.96,West,261,5.0,-999.0,27,0.00,,,0.00,,2013-05-04 19:32:00,
2013-05-04 14:42:00,76.0,40.0,29.96,West,261,5.0,-999.0,27,0.00,,,0.00,,2013-05-04 19:42:00,
2013-05-04 14:52:00,77.0,37.0,29.95,SSW,203,10.0,-999.0,24,0.00,,,0.00,,2013-05-04 19:52:00,
2013-05-04 15:02:00,77.0,39.0,29.95,South,175,6.0,-999.0,26,0.00,,,0.00,,2013-05-04 20:02:00,
2013-05-04 15:11:00,77.0,39.0,29.95,South,175,6.0,-999.0,26,0.00,,,0.00,,2013-05-04 20:11:00,
2013-05-04 15:22:00,78.0,39.0,29.94,SSW,194,7.0,-999.0,25,0.00,,,0.00,,2013-05-04 20:22:00,
2013-05-04 15:32:00,79.0,39.0,29.93,SSW,193,7.0,-999.0,24,0.00,,,0.00,,2013-05-04 20:32:00,
2013-05-04 15:42:00,79.0,39.0,29.93,SSW,193,7.0,-999.0,24,0.00,,,0.00,,2013-05-04 20:42:00,
2013-05-04 15:52:00,79.0,36.0,29.92,SW,220,2.0,-999.0,21,0.00,,,0.00,,2013-05-04 20:52:00,
2013-05-04 16:02:00,79.0,37.0,29.91,SW,223,6.0,-999.0,22,0.00,,,0.00,,2013-05-04 21:02:00,
2013-05-04 16:11:00,79.0,37.0,29.91,SW,223,6.0,-999.0,22,0.00,,,0.00,,2013-05-04 21:11:00,
2013-05-04 16:22:00,80.0,37.0,29.91,SW,227,6.0,-999.0,21,0.00,,,0.00,,2013-05-04 21:22:00,
2013-05-04 16:33:00,80.0,38.0,29.90,SSW,210,4.0,-999.0,22,0.00,,,0.00,,2013-05-04 21:33:00,
2013-05-04 16:43:00,80.0,38.0,29.90,SSW,210,4.0,-999.0,22,0.00,,,0.00,,2013-05-04 21:43:00,
2013-05-04 16:53:00,80.0,35.0,29.90,SSW,207,7.0,-999.0,20,0.00,,,0.00,,2013-05-04 21:53:00,
2013-05-04 17:03:00,80.0,37.0,29.89,SSW,192,6.0,-999.0,21,0.00,,,0.00,,2013-05-04 22:03:00,
2013-05-04 17:12:00,80.0,37.0,29.89,SSW,192,6.0,-999.0,21,0.00,,,0.00,,2013-05-04 22:12:00,
2013-05-04 17:22:00,80.0,37.0,29.88,SW,215,5.0,-999.0,21,0.00,,,0.00,,2013-05-04 22:22:00,
2013-05-04 17:33:00,80.0,38.0,29.88,WSW,250,6.0,-999.0,22,0.00,,,0.00,,2013-05-04 22:33:00,
2013-05-04 17:42:00,80.0,38.0,29.88,WSW,250,6.0,-999.0,22,0.00,,,0.00,,2013-05-04 22:42:00,
2013-05-04 17:52:00,79.0,37.0,29.88,SSW,207,8.0,-999.0,22,0.00,,,0.00,,2013-05-04 22:52:00,
2013-05-04 18:02:00,80.0,37.0,29.88,SSW,206,6.0,-999.0,21,0.00,,,0.00,,2013-05-04 23:02:00,
2013-05-04 18:11:00,80.0,37.0,29.88,SSW,206,6.0,-999.0,21,0.00,,,0.00,,2013-05-04 23:11:00,
2013-05-04 18:22:00,80.0,35.0,29.87,SSW,211,7.0,-999.0,20,0.00,,,0.00,,2013-05-04 23:22:00,
2013-05-04 18:32:00,80.0,39.0,29.86,South,190,7.0,-999.0,23,0.00,,,0.00,,2013-05-04 23:32:00,
2013-05-04 18:42:00,80.0,39.0,29.86,South,190,7.0,-999.0,23,0.00,,,0.00,,2013-05-04 23:42:00,
2013-05-04 18:52:00,79.0,39.0,29.86,SW,219,6.0,-999.0,24,0.00,,,0.00,,2013-05-04 23:52:00,
2013-05-04 19:01:00,78.0,38.0,29.86,SSW,195,5.0,-999.0,24,0.00,,,0.00,,2013-05-05 00:01:00,
2013-05-04 19:11:00,78.0,38.0,29.86,SSW,195,5.0,-999.0,24,0.00,,,0.00,,2013-05-05 00:11:00,
2013-05-04 19:21:00,78.0,38.0,29.86,South,185,5.0,-999.0,24,0.00,,,0.00,,2013-05-05 00:21:00,
2013-05-04 19:31:00,77.0,38.0,29.86,South,190,5.0,-999.0,25,0.00,,,0.00,,2013-05-05 00:31:00,
2013-05-04 19:42:00,77.0,38.0,29.86,South,190,5.0,-999.0,25,0.00,,,0.00,,2013-05-05 00:42:00,
2013-05-04 19:52:00,76.0,41.0,29.87,SSW,196,3.0,-999.0,28,0.00,,,0.00,,2013-05-05 00:52:00,
2013-05-04 20:01:00,74.0,41.0,29.87,South,189,3.0,-999.0,30,0.00,,,0.00,,2013-05-05 01:01:00,
2013-05-04 20:11:00,72.0,40.0,29.88,WSW,242,3.0,-999.0,31,0.00,,,0.00,,2013-05-05 01:11:00,
2013-05-04 20:21:00,72.0,40.0,29.88,WSW,242,3.0,-999.0,31,0.00,,,0.00,,2013-05-05 01:21:00,
2013-05-04 20:32:00,72.0,41.0,29.88,SW,219,2.0,-999.0,32,0.00,,,0.00,,2013-05-05 01:32:00,
2013-05-04 20:42:00,72.0,41.0,29.88,SW,219,2.0,-999.0,32,0.00,,,0.00,,2013-05-05 01:42:00,
2013-05-04 20:52:00,71.0,40.0,29.88,SW,227,3.0,-999.0,33,0.00,,,0.00,,2013-05-05 01:52:00,
2013-05-04 21:02:00,70.0,40.0,29.88,SW,228,3.0,-999.0,33,0.00,,,0.00,,2013-05-05 02:02:00,
2013-05-04 21:11:00,70.0,40.0,29.88,SW,228,3.0,-999.0,33,0.00,,,0.00,,2013-05-05 02:11:00,
2013-05-04 21:21:00,70.0,40.0,29.89,SW,216,3.0,-999.0,34,0.00,,,0.00,,2013-05-05 02:21:00,
2013-05-04 21:31:00,69.0,40.0,29.90,SW,216,2.0,-999.0,35,0.00,,,0.00,,2013-05-05 02:31:00,
2013-05-04 21:42:00,69.0,40.0,29.90,SW,216,2.0,-999.0,35,0.00,,,0.00,,2013-05-05 02:42:00,
2013-05-04 21:52:00,68.0,41.0,29.90,SW,216,3.0,-999.0,37,0.00,,,0.00,,2013-05-05 02:52:00,
2013-05-04 22:01:00,67.0,41.0,29.91,SW,216,3.0,-999.0,39,0.00,,,0.00,,2013-05-05 03:01:00,
2013-05-04 22:12:00,66.0,-99.9,-100.00,SW,216,3.0,-999.0,-999,-99.99,,,-99.99,,2013-05-05 03:12:00,
2013-05-04 22:22:00,66.0,-99.9,-100.00,SW,216,3.0,-999.0,-999,-99.99,,,-99.99,,2013-05-05 03:22:00,
2013-05-04 22:33:00,65.0,42.0,29.92,SW,218,1.0,-999.0,43,0.00,,,0.00,,2013-05-05 03:33:00,
2013-05-04 22:42:00,65.0,42.0,29.92,SW,218,1.0,-999.0,43,0.00,,,0.00,,2013-05-05 03:42:00,
2013-05-04 22:53:00,60.0,44.0,29.93,NNW,333,4.0,-999.0,55,0.00,,,0.00,,2013-05-05 03:53:00,
2013-05-04 23:02:00,60.0,44.0,29.93,NNW,333,4.0,-999.0,56,0.00,,,0.00,,2013-05-05 04:02:00,
2013-05-04 23:12:00,60.0,44.0,29.93,NNW,333,4.0,-999.0,56,0.00,,,0.00,,2013-05-05 04:12:00,
2013-05-04 23:22:00,61.0,42.0,29.94,NNW,329,1.0,-999.0,49,0.00,,,0.00,,2013-05-05 04:22:00,
2013-05-04 23:32:00,62.0,43.0,29.95,NNW,329,1.0,-999.0,49,0.00,,,0.00,,2013-05-05 04:32:00,
2013-05-04 23:43:00,62.0,43.0,29.95,NNW,329,1.0,-999.0,49,0.00,,,0.00,,2013-05-05 04:43:00,
2013-05-04 23:53:00,61.0,43.0,29.96,SSW,212,2.0,-999.0,51,0.00,,,0.00,,2013-05-05 04:53:00,